IGO1904 LGAV-VABB
Flight info
| Callsign | IGO1904 |
|---|---|
| Flight time | N/A |
| Altitude | 29000 |
| Route | KEA UL607 PAXIS L607 NABSI P557 OBRAN/N0469F310 L321 REXUM M872 PMA Y214 TUKVU/N0474F330 Y214 RAPMA DCT ULONO DCT DAPOL DCT TULBU N881 AMBOS M700 PARAR/N0471F350 N571 SUGID KETOR2A |
| Aircraft | A21N/M-SDE3FGHIRWY/LB1 |
Departure
| Time | N/A |
|---|---|
| Airport | Athens Eleftherios Venizelos International Airport (LGAV) |
Arrival
| Time | 2026-05-06 19:21 |
|---|---|
| Airport | Chhatrapati Shivaji Maharaj International Airport (VABB) |
| Time | Latitude | Longitude | Altitude | Speed | Heading |
|---|---|---|---|---|---|
| 2026-05-06 18:28 | 19.89870 | 68.62251 | 34830 ft | 493 kts | 116° |
| 2026-05-06 18:28 | 19.88372 | 68.65399 | 34831 ft | 493 kts | 116° |
| 2026-05-06 18:28 | 19.85361 | 68.71722 | 34827 ft | 493 kts | 116° |
| 2026-05-06 18:29 | 19.82281 | 68.78184 | 34828 ft | 493 kts | 116° |
| 2026-05-06 18:29 | 19.79186 | 68.84664 | 34824 ft | 493 kts | 116° |
| 2026-05-06 18:30 | 19.76096 | 68.91130 | 34824 ft | 493 kts | 116° |
| 2026-05-06 18:30 | 19.72994 | 68.97613 | 34823 ft | 494 kts | 116° |
| 2026-05-06 18:31 | 19.69924 | 69.04025 | 34825 ft | 494 kts | 116° |
| 2026-05-06 18:31 | 19.66847 | 69.10442 | 34822 ft | 493 kts | 116° |
| 2026-05-06 18:32 | 19.63794 | 69.16805 | 34822 ft | 492 kts | 116° |
| 2026-05-06 18:32 | 19.60693 | 69.23264 | 34826 ft | 492 kts | 116° |
| 2026-05-06 18:33 | 19.57605 | 69.29692 | 34828 ft | 492 kts | 116° |
| 2026-05-06 18:33 | 19.54614 | 69.35902 | 34830 ft | 492 kts | 116° |
| 2026-05-06 18:34 | 19.51301 | 69.42816 | 34828 ft | 492 kts | 116° |
| 2026-05-06 18:34 | 19.48184 | 69.49334 | 34828 ft | 492 kts | 116° |
| 2026-05-06 18:35 | 19.45085 | 69.55808 | 34827 ft | 492 kts | 116° |
| 2026-05-06 18:35 | 19.41997 | 69.62255 | 34827 ft | 492 kts | 116° |
| 2026-05-06 18:36 | 19.38913 | 69.68684 | 34823 ft | 491 kts | 117° |
| 2026-05-06 18:36 | 19.35814 | 69.75139 | 34820 ft | 491 kts | 117° |
| 2026-05-06 18:37 | 19.33253 | 69.80466 | 34815 ft | 491 kts | 117° |
| 2026-05-06 18:37 | 19.29632 | 69.87995 | 34808 ft | 490 kts | 117° |
| 2026-05-06 18:38 | 19.26548 | 69.94400 | 34808 ft | 490 kts | 117° |
| 2026-05-06 18:38 | 19.23466 | 70.00790 | 34805 ft | 490 kts | 117° |
| 2026-05-06 18:39 | 19.20358 | 70.07231 | 34807 ft | 490 kts | 117° |
| 2026-05-06 18:40 | 19.15749 | 70.16775 | 34807 ft | 490 kts | 117° |
| 2026-05-06 18:40 | 19.12926 | 70.22929 | 34806 ft | 490 kts | 113° |
| 2026-05-06 18:41 | 19.08322 | 70.35123 | 34806 ft | 489 kts | 111° |
| 2026-05-06 18:42 | 19.05830 | 70.41790 | 34810 ft | 489 kts | 111° |
| 2026-05-06 18:42 | 19.03352 | 70.48398 | 34816 ft | 489 kts | 111° |
| 2026-05-06 18:43 | 19.00845 | 70.55067 | 34814 ft | 489 kts | 111° |
| 2026-05-06 18:43 | 18.98340 | 70.61721 | 34813 ft | 488 kts | 111° |
| 2026-05-06 18:44 | 18.95850 | 70.68335 | 34813 ft | 488 kts | 111° |
| 2026-05-06 18:44 | 18.93411 | 70.74802 | 34809 ft | 488 kts | 111° |
| 2026-05-06 18:45 | 18.90973 | 70.81255 | 34809 ft | 488 kts | 111° |
| 2026-05-06 18:45 | 18.88460 | 70.87898 | 34807 ft | 488 kts | 111° |
| 2026-05-06 18:46 | 18.85944 | 70.94542 | 34806 ft | 488 kts | 111° |
| 2026-05-06 18:46 | 18.83439 | 71.01150 | 34806 ft | 488 kts | 111° |
| 2026-05-06 18:47 | 18.80918 | 71.07791 | 34798 ft | 488 kts | 111° |
| 2026-05-06 18:47 | 18.78393 | 71.14436 | 34790 ft | 488 kts | 111° |
| 2026-05-06 18:48 | 18.75881 | 71.21040 | 34794 ft | 487 kts | 111° |
| 2026-05-06 18:48 | 18.73362 | 71.27651 | 34800 ft | 487 kts | 111° |
| 2026-05-06 18:49 | 18.70828 | 71.34293 | 34800 ft | 488 kts | 111° |
| 2026-05-06 18:49 | 18.68312 | 71.40880 | 34795 ft | 488 kts | 111° |
| 2026-05-06 18:50 | 18.65785 | 71.47491 | 34791 ft | 488 kts | 111° |
| 2026-05-06 18:50 | 18.63249 | 71.54115 | 34794 ft | 488 kts | 111° |
| 2026-05-06 18:51 | 18.60753 | 71.60629 | 34795 ft | 488 kts | 111° |
| 2026-05-06 18:51 | 18.58313 | 71.66987 | 34429 ft | 480 kts | 112° |
| 2026-05-06 18:51 | 18.57094 | 71.70163 | 33898 ft | 474 kts | 112° |
| 2026-05-06 18:52 | 18.55873 | 71.73341 | 33251 ft | 471 kts | 112° |
| 2026-05-06 18:52 | 18.54671 | 71.76470 | 32580 ft | 469 kts | 112° |
| 2026-05-06 18:52 | 18.53455 | 71.79630 | 31914 ft | 469 kts | 112° |
| 2026-05-06 18:52 | 18.52241 | 71.82785 | 31236 ft | 470 kts | 111° |
| 2026-05-06 18:53 | 18.51032 | 71.85922 | 30559 ft | 470 kts | 111° |
| 2026-05-06 18:53 | 18.49806 | 71.89104 | 29865 ft | 471 kts | 111° |
| 2026-05-06 18:53 | 18.48601 | 71.92234 | 29483 ft | 463 kts | 111° |
| 2026-05-06 18:53 | 18.47405 | 71.95342 | 29285 ft | 451 kts | 111° |
| 2026-05-06 18:54 | 18.46254 | 71.98328 | 29158 ft | 438 kts | 111° |
| 2026-05-06 18:54 | 18.45117 | 72.01271 | 29056 ft | 424 kts | 111° |
| 2026-05-06 18:54 | 18.44207 | 72.04137 | 28869 ft | 411 kts | 97° |
| 2026-05-06 18:54 | 18.44185 | 72.07059 | 28714 ft | 395 kts | 77° |
| 2026-05-06 18:55 | 18.45032 | 72.09749 | 28338 ft | 388 kts | 59° |
| 2026-05-06 18:55 | 18.46596 | 72.11984 | 27926 ft | 380 kts | 44° |
| 2026-05-06 18:55 | 18.48414 | 72.13976 | 27545 ft | 377 kts | 43° |
| 2026-05-06 18:55 | 18.50223 | 72.15938 | 27146 ft | 375 kts | 43° |
| 2026-05-06 18:56 | 18.52029 | 72.17916 | 26735 ft | 373 kts | 44° |
| 2026-05-06 18:56 | 18.53730 | 72.19801 | 26341 ft | 372 kts | 44° |
| 2026-05-06 18:56 | 18.55471 | 72.21743 | 25932 ft | 370 kts | 44° |
| 2026-05-06 18:56 | 18.57197 | 72.23679 | 25524 ft | 369 kts | 44° |
| 2026-05-06 18:57 | 18.58931 | 72.25630 | 25112 ft | 367 kts | 44° |
| 2026-05-06 18:57 | 18.60650 | 72.27567 | 24706 ft | 366 kts | 44° |
| 2026-05-06 18:57 | 18.62382 | 72.29520 | 24296 ft | 364 kts | 44° |
| 2026-05-06 18:57 | 18.64094 | 72.31453 | 23887 ft | 362 kts | 44° |
| 2026-05-06 18:58 | 18.65749 | 72.33322 | 23485 ft | 361 kts | 43° |
| 2026-05-06 18:58 | 18.67423 | 72.35214 | 23082 ft | 360 kts | 43° |
| 2026-05-06 18:58 | 18.69111 | 72.37123 | 22677 ft | 359 kts | 43° |
| 2026-05-06 18:58 | 18.70813 | 72.39047 | 22264 ft | 358 kts | 43° |
| 2026-05-06 18:59 | 18.72505 | 72.40962 | 21865 ft | 357 kts | 43° |
| 2026-05-06 18:59 | 18.74134 | 72.42804 | 21485 ft | 356 kts | 43° |
| 2026-05-06 18:59 | 18.75777 | 72.44662 | 21101 ft | 355 kts | 43° |
| 2026-05-06 18:59 | 18.77421 | 72.46523 | 20613 ft | 356 kts | 43° |
| 2026-05-06 19:00 | 18.79102 | 72.48424 | 19972 ft | 361 kts | 43° |
| 2026-05-06 19:00 | 18.80807 | 72.50350 | 19331 ft | 369 kts | 44° |
| 2026-05-06 19:00 | 18.82564 | 72.52341 | 18668 ft | 368 kts | 44° |
| 2026-05-06 19:00 | 18.84269 | 72.54279 | 18019 ft | 366 kts | 44° |
| 2026-05-06 19:01 | 18.85985 | 72.56226 | 17360 ft | 364 kts | 45° |
| 2026-05-06 19:01 | 18.87708 | 72.58179 | 16703 ft | 362 kts | 45° |
| 2026-05-06 19:01 | 18.89390 | 72.60105 | 16047 ft | 361 kts | 48° |
| 2026-05-06 19:01 | 18.90631 | 72.62358 | 15356 ft | 360 kts | 73° |
| 2026-05-06 19:02 | 18.90925 | 72.64939 | 14709 ft | 357 kts | 89° |
| 2026-05-06 19:02 | 18.90968 | 72.67553 | 14035 ft | 355 kts | 89° |
| 2026-05-06 19:02 | 18.91019 | 72.70098 | 13365 ft | 352 kts | 89° |
| 2026-05-06 19:02 | 18.91086 | 72.72588 | 12682 ft | 349 kts | 89° |
| 2026-05-06 19:03 | 18.91165 | 72.75074 | 11986 ft | 346 kts | 89° |
| 2026-05-06 19:03 | 18.91252 | 72.77561 | 11287 ft | 342 kts | 89° |
| 2026-05-06 19:03 | 18.91344 | 72.80064 | 10588 ft | 339 kts | 88° |
| 2026-05-06 19:03 | 18.91437 | 72.82510 | 9898 ft | 336 kts | 88° |
| 2026-05-06 19:04 | 18.91532 | 72.84950 | 9357 ft | 326 kts | 88° |
| 2026-05-06 19:04 | 18.91623 | 72.87253 | 9069 ft | 311 kts | 88° |
| 2026-05-06 19:04 | 18.91711 | 72.89483 | 8779 ft | 297 kts | 88° |
| 2026-05-06 19:04 | 18.91795 | 72.91616 | 8488 ft | 285 kts | 88° |
| 2026-05-06 19:05 | 18.91875 | 72.93681 | 8196 ft | 274 kts | 88° |
| 2026-05-06 19:05 | 18.91953 | 72.95657 | 7915 ft | 271 kts | 87° |
| 2026-05-06 19:05 | 18.92030 | 72.97623 | 7633 ft | 267 kts | 87° |
| 2026-05-06 19:05 | 18.92105 | 72.99566 | 7359 ft | 262 kts | 87° |
| 2026-05-06 19:06 | 18.92180 | 73.01479 | 7209 ft | 255 kts | 87° |
| 2026-05-06 19:06 | 18.92253 | 73.03337 | 7095 ft | 256 kts | 87° |
| 2026-05-06 19:06 | 18.92325 | 73.05203 | 6979 ft | 256 kts | 87° |
| 2026-05-06 19:06 | 18.92398 | 73.07085 | 6860 ft | 255 kts | 86° |
| 2026-05-06 19:07 | 18.92470 | 73.08955 | 6742 ft | 255 kts | 86° |
| 2026-05-06 19:07 | 18.92543 | 73.10839 | 6643 ft | 255 kts | 86° |
| 2026-05-06 19:07 | 18.92615 | 73.12705 | 6550 ft | 255 kts | 86° |
| 2026-05-06 19:07 | 18.92685 | 73.14565 | 6458 ft | 256 kts | 86° |
| 2026-05-06 19:08 | 18.92757 | 73.16438 | 6368 ft | 256 kts | 86° |
| 2026-05-06 19:08 | 18.92835 | 73.18328 | 6291 ft | 256 kts | 85° |
| 2026-05-06 19:08 | 18.92912 | 73.20209 | 6222 ft | 256 kts | 85° |
| 2026-05-06 19:08 | 18.92993 | 73.22091 | 6154 ft | 256 kts | 85° |
| 2026-05-06 19:09 | 18.93071 | 73.23944 | 6086 ft | 256 kts | 85° |
| 2026-05-06 19:09 | 18.93151 | 73.25835 | 6019 ft | 255 kts | 85° |
| 2026-05-06 19:09 | 18.93229 | 73.27695 | 5947 ft | 255 kts | 85° |
| 2026-05-06 19:09 | 18.93305 | 73.29562 | 5875 ft | 254 kts | 85° |
| 2026-05-06 19:10 | 18.93379 | 73.31355 | 5807 ft | 254 kts | 85° |
| 2026-05-06 19:10 | 18.93454 | 73.33202 | 5738 ft | 253 kts | 85° |
| 2026-05-06 19:10 | 18.93530 | 73.35074 | 5667 ft | 253 kts | 85° |
| 2026-05-06 19:10 | 18.93604 | 73.36897 | 5597 ft | 251 kts | 85° |
| 2026-05-06 19:11 | 18.93741 | 73.38728 | 5517 ft | 248 kts | 74° |
| 2026-05-06 19:11 | 18.94577 | 73.40262 | 5426 ft | 242 kts | 39° |
| 2026-05-06 19:11 | 18.96063 | 73.41058 | 5358 ft | 241 kts | 10° |
| 2026-05-06 19:11 | 18.97730 | 73.40954 | 5280 ft | 242 kts | 341° |
| 2026-05-06 19:12 | 18.99130 | 73.39973 | 5205 ft | 246 kts | 311° |
| 2026-05-06 19:12 | 18.99876 | 73.38337 | 5131 ft | 252 kts | 281° |
| 2026-05-06 19:12 | 18.99708 | 73.36512 | 5061 ft | 258 kts | 249° |
| 2026-05-06 19:12 | 18.98649 | 73.34972 | 5003 ft | 262 kts | 225° |
| 2026-05-06 19:13 | 18.97419 | 73.33546 | 4915 ft | 259 kts | 243° |
| 2026-05-06 19:13 | 18.97003 | 73.31771 | 4842 ft | 251 kts | 279° |
| 2026-05-06 19:13 | 18.97575 | 73.30054 | 4792 ft | 247 kts | 301° |
| 2026-05-06 19:13 | 18.98396 | 73.28460 | 4722 ft | 246 kts | 300° |
| 2026-05-06 19:14 | 18.99201 | 73.26862 | 4653 ft | 246 kts | 300° |
| 2026-05-06 19:14 | 18.99997 | 73.25268 | 4584 ft | 246 kts | 300° |
| 2026-05-06 19:14 | 19.00792 | 73.23667 | 4505 ft | 245 kts | 300° |
| 2026-05-06 19:14 | 19.01579 | 73.22085 | 4430 ft | 245 kts | 300° |
| 2026-05-06 19:15 | 19.02376 | 73.20482 | 4355 ft | 244 kts | 300° |
| 2026-05-06 19:15 | 19.03162 | 73.18898 | 4281 ft | 244 kts | 300° |
| 2026-05-06 19:15 | 19.03946 | 73.17322 | 4207 ft | 243 kts | 300° |
| 2026-05-06 19:15 | 19.04738 | 73.15725 | 4131 ft | 242 kts | 300° |
| 2026-05-06 19:16 | 19.05524 | 73.14143 | 4056 ft | 242 kts | 300° |
| 2026-05-06 19:16 | 19.06303 | 73.12575 | 3982 ft | 242 kts | 300° |
| 2026-05-06 19:16 | 19.07088 | 73.11004 | 3908 ft | 242 kts | 301° |
| 2026-05-06 19:16 | 19.07874 | 73.09441 | 3780 ft | 242 kts | 301° |
| 2026-05-06 19:17 | 19.08645 | 73.07848 | 3582 ft | 243 kts | 295° |
| 2026-05-06 19:17 | 19.09077 | 73.06113 | 3259 ft | 246 kts | 279° |
| 2026-05-06 19:17 | 19.09169 | 73.04300 | 2938 ft | 247 kts | 273° |
| 2026-05-06 19:17 | 19.09135 | 73.02486 | 2618 ft | 247 kts | 271° |
| 2026-05-06 19:18 | 19.09082 | 73.00693 | 2306 ft | 246 kts | 271° |
| 2026-05-06 19:18 | 19.09043 | 72.98884 | 1997 ft | 245 kts | 271° |
| 2026-05-06 19:18 | 19.09017 | 72.97133 | 1693 ft | 237 kts | 271° |
| 2026-05-06 19:18 | 19.08993 | 72.95436 | 1395 ft | 224 kts | 271° |
| 2026-05-06 19:19 | 19.08969 | 72.93844 | 1205 ft | 207 kts | 271° |
| 2026-05-06 19:19 | 19.08948 | 72.92371 | 949 ft | 195 kts | 271° |
| 2026-05-06 19:19 | 19.08926 | 72.90981 | 689 ft | 182 kts | 271° |
| 2026-05-06 19:19 | 19.08908 | 72.89699 | 431 ft | 169 kts | 271° |
| 2026-05-06 19:20 | 19.08892 | 72.88514 | 214 ft | 154 kts | 271° |
| 2026-05-06 19:20 | 19.08878 | 72.87425 | 36 ft | 140 kts | 271° |
| 2026-05-06 19:20 | 19.08869 | 72.86525 | 33 ft | 99 kts | 267° |
| 2026-05-06 19:20 | 19.08864 | 72.85983 | 28 ft | 50 kts | 270° |
| 2026-05-06 19:21 | 19.08876 | 72.85680 | 26 ft | 37 kts | 287° |
| 2026-05-06 19:21 | 19.08948 | 72.85506 | 27 ft | 17 kts | 314° |
| 2026-05-06 19:21 | 19.09012 | 72.85513 | 28 ft | 9 kts | 59° |
| 2026-05-06 19:21 | 19.09024 | 72.85582 | 28 ft | 9 kts | 90° |
| 2026-05-06 19:22 | 19.09024 | 72.85656 | 28 ft | 10 kts | 90° |
| 2026-05-06 19:22 | 19.09026 | 72.85732 | 28 ft | 10 kts | 86° |
| 2026-05-06 19:22 | 19.09029 | 72.85812 | 29 ft | 11 kts | 89° |
| 2026-05-06 19:22 | 19.09031 | 72.85923 | 30 ft | 18 kts | 89° |
| 2026-05-06 19:23 | 19.09034 | 72.86091 | 31 ft | 26 kts | 89° |
| 2026-05-06 19:23 | 19.09037 | 72.86310 | 31 ft | 31 kts | 89° |
| 2026-05-06 19:23 | 19.09041 | 72.86532 | 31 ft | 29 kts | 90° |
| 2026-05-06 19:23 | 19.09045 | 72.86739 | 31 ft | 27 kts | 87° |
| 2026-05-06 19:24 | 19.09044 | 72.86935 | 29 ft | 26 kts | 90° |
| 2026-05-06 19:24 | 19.09047 | 72.87127 | 28 ft | 25 kts | 89° |
| 2026-05-06 19:24 | 19.09115 | 72.87260 | 30 ft | 19 kts | 7° |
| 2026-05-06 19:24 | 19.09226 | 72.87295 | 32 ft | 15 kts | 62° |
| 2026-05-06 19:25 | 19.09300 | 72.87361 | 33 ft | 14 kts | 0° |
| 2026-05-06 19:25 | 19.09384 | 72.87393 | 36 ft | 12 kts | 41° |
| 2026-05-06 19:25 | 19.09416 | 72.87463 | 36 ft | 9 kts | 99° |
| 2026-05-06 19:25 | 19.09402 | 72.87502 | 35 ft | 5 kts | 104° |
| 2026-05-06 19:26 | 19.09419 | 72.87531 | 35 ft | 5 kts | 38° |
| 2026-05-06 19:26 | 19.09445 | 72.87551 | 36 ft | 3 kts | 32° |
| 2026-05-06 19:26 | 19.09460 | 72.87561 | 36 ft | 1 kts | 31° |
| 2026-05-06 19:26 | 19.09462 | 72.87562 | 36 ft | 0 kts | 31° |